createdAt,value
2018-04-02T00:00:37.080Z,85.70
2018-04-02T00:03:05.346Z,85.61
2018-04-02T00:05:33.725Z,85.94
2018-04-02T00:08:02.017Z,86.30
2018-04-02T00:10:30.345Z,85.69
2018-04-02T00:12:58.821Z,86.20
2018-04-02T00:15:27.145Z,85.07
2018-04-02T00:17:55.767Z,85.19
2018-04-02T00:20:24.049Z,85.87
2018-04-02T00:22:52.324Z,85.07
2018-04-02T00:25:20.623Z,85.08
2018-04-02T00:27:49.052Z,85.33
2018-04-02T00:30:17.685Z,85.25
2018-04-02T00:32:46.153Z,85.49
2018-04-02T00:35:14.660Z,86.20
2018-04-02T00:37:42.969Z,85.42
2018-04-02T00:40:11.397Z,85.00
2018-04-02T00:42:39.740Z,84.65
2018-04-02T00:45:08.032Z,84.59
2018-04-02T00:47:36.332Z,85.00
2018-04-02T00:50:04.612Z,85.58
2018-04-02T00:52:33.081Z,85.01
2018-04-02T00:55:01.331Z,85.41
2018-04-02T00:57:29.989Z,85.68
2018-04-02T00:59:58.392Z,85.43
2018-04-02T01:02:26.721Z,85.44
2018-04-02T01:04:55.006Z,85.28
2018-04-02T01:07:23.359Z,85.59
2018-04-02T01:09:51.671Z,85.90
2018-04-02T01:12:20.062Z,84.93
2018-04-02T01:14:48.590Z,85.43
2018-04-02T01:17:17.078Z,84.85
2018-04-02T01:20:59.583Z,85.06
2018-04-02T01:23:27.984Z,84.84
2018-04-02T01:25:56.365Z,85.63
2018-04-02T01:28:24.700Z,84.78
2018-04-02T01:30:53.035Z,84.04
2018-04-02T01:33:21.273Z,84.35
2018-04-02T01:35:49.580Z,83.87
2018-04-02T01:38:17.850Z,84.50
2018-04-02T01:40:46.224Z,84.38
2018-04-02T01:43:14.649Z,83.43
2018-04-02T01:45:42.985Z,84.21
2018-04-02T01:48:11.504Z,84.32
2018-04-02T01:50:39.933Z,84.30
2018-04-02T01:53:08.198Z,83.65
2018-04-02T01:55:36.673Z,83.38
2018-04-02T01:58:04.960Z,83.48
2018-04-02T02:00:33.265Z,83.95
2018-04-02T02:03:01.545Z,83.77
2018-04-02T02:05:29.848Z,83.92
2018-04-02T02:07:58.120Z,85.06
2018-04-02T02:10:26.536Z,84.88
2018-04-02T02:12:54.884Z,85.15
2018-04-02T02:15:23.293Z,85.36
2018-04-02T02:17:51.568Z,85.75
2018-04-02T02:20:19.848Z,85.84
2018-04-02T02:22:48.205Z,85.74
2018-04-02T02:25:16.525Z,85.93
2018-04-02T02:27:44.896Z,85.96
2018-04-02T02:30:13.249Z,85.95
2018-04-02T02:32:41.554Z,86.71
2018-04-02T02:35:10.906Z,86.20
2018-04-02T02:37:39.186Z,86.17
2018-04-02T02:40:07.492Z,86.78
2018-04-02T02:42:35.797Z,86.92
2018-04-02T02:45:04.279Z,86.97
2018-04-02T02:47:32.547Z,88.17
2018-04-02T02:50:01.331Z,87.31
2018-04-02T02:52:29.685Z,87.69
2018-04-02T02:54:57.952Z,86.99
2018-04-02T02:57:26.333Z,87.63
2018-04-02T02:59:54.616Z,87.31
2018-04-02T03:02:22.962Z,87.72
2018-04-02T03:04:51.258Z,87.46
2018-04-02T03:07:19.632Z,88.10
2018-04-02T03:09:47.913Z,89.00
2018-04-02T03:12:16.260Z,88.47
2018-04-02T03:14:44.604Z,88.50
2018-04-02T03:17:12.969Z,88.54
2018-04-02T03:19:41.273Z,88.44
2018-04-02T03:22:09.608Z,88.98
2018-04-02T03:24:37.881Z,88.97
2018-04-02T03:27:06.361Z,89.29
2018-04-02T03:29:34.668Z,88.82
2018-04-02T03:32:03.128Z,88.79
2018-04-02T03:34:31.412Z,89.67
2018-04-02T03:36:59.747Z,89.86
2018-04-02T03:39:28.048Z,89.97
2018-04-02T03:41:56.368Z,90.10
2018-04-02T03:44:24.612Z,90.08
2018-04-02T03:46:52.973Z,89.99
2018-04-02T03:49:21.273Z,90.05
2018-04-02T03:51:49.583Z,89.99
2018-04-02T03:54:17.839Z,90.04
2018-04-02T03:56:46.297Z,90.15
2018-04-02T03:59:14.744Z,89.99
2018-04-02T04:01:43.072Z,90.60
2018-04-02T04:04:11.348Z,90.41
2018-04-02T04:06:39.684Z,90.42
2018-04-02T04:09:07.961Z,89.98
2018-04-02T04:11:36.288Z,90.17
2018-04-02T04:14:04.539Z,90.18
2018-04-02T04:16:32.913Z,90.22
2018-04-02T04:19:01.205Z,90.49
2018-04-02T04:21:29.532Z,90.91
2018-04-02T04:23:57.793Z,90.76
2018-04-02T04:26:26.229Z,91.08
2018-04-02T04:28:54.513Z,90.92
2018-04-02T04:31:22.861Z,91.12
2018-04-02T04:33:51.152Z,91.01
2018-04-02T04:36:19.515Z,90.57
2018-04-02T04:38:47.816Z,90.98
2018-04-02T04:41:16.117Z,90.74
2018-04-02T04:43:44.548Z,90.61
2018-04-02T04:46:12.871Z,90.47
2018-04-02T04:48:41.321Z,90.59
2018-04-02T04:51:09.768Z,90.55
2018-04-02T04:53:38.273Z,90.39
2018-04-02T04:56:06.713Z,89.64
2018-04-02T04:58:34.996Z,89.94
2018-04-02T05:01:03.365Z,89.47
2018-04-02T05:03:31.786Z,89.89
2018-04-02T05:06:00.722Z,89.77
2018-04-02T05:08:29.010Z,89.26
2018-04-02T05:10:57.349Z,89.01
2018-04-02T05:13:25.622Z,89.48
2018-04-02T05:15:54.101Z,89.47
2018-04-02T05:18:22.392Z,89.61
2018-04-02T05:20:50.764Z,89.42
2018-04-02T05:23:19.040Z,88.87
2018-04-02T05:25:47.367Z,88.76
2018-04-02T05:28:15.643Z,88.50
2018-04-02T05:30:44.116Z,88.70
2018-04-02T05:33:12.562Z,88.57
2018-04-02T05:35:41.161Z,89.17
2018-04-02T05:38:09.545Z,87.79
2018-04-02T05:40:37.843Z,87.73
2018-04-02T05:43:06.105Z,87.12
2018-04-02T05:45:35.310Z,87.73
2018-04-02T05:48:03.682Z,87.41
2018-04-02T05:50:32.024Z,86.89
2018-04-02T05:53:00.318Z,86.73
2018-04-02T05:55:28.675Z,86.43
2018-04-02T05:57:57.157Z,86.28
2018-04-02T06:00:25.870Z,85.93
2018-04-02T06:02:54.253Z,86.61
2018-04-02T06:05:22.685Z,85.92
2018-04-02T06:07:50.949Z,86.18
2018-04-02T06:10:19.304Z,85.48
2018-04-02T06:12:47.581Z,85.22
2018-04-02T06:15:15.901Z,85.82
2018-04-02T06:17:44.164Z,85.01
2018-04-02T06:20:13.422Z,85.02
2018-04-02T06:22:41.727Z,84.78
2018-04-02T06:25:10.150Z,85.41
2018-04-02T06:27:43.819Z,84.12
2018-04-02T06:30:17.868Z,83.82
2018-04-02T06:32:46.986Z,84.26
2018-04-02T06:35:15.632Z,83.99
2018-04-02T06:37:45.384Z,84.54
2018-04-02T06:40:13.698Z,84.19
2018-04-02T06:42:41.972Z,83.17
2018-04-02T06:45:10.271Z,83.08
2018-04-02T06:47:38.559Z,82.95
2018-04-02T06:50:06.920Z,82.56
2018-04-02T06:52:35.264Z,80.71
2018-04-02T06:55:03.520Z,80.25
2018-04-02T06:57:31.856Z,81.35
2018-04-02T07:00:00.096Z,80.95
2018-04-02T07:02:28.454Z,80.73
2018-04-02T07:04:56.736Z,81.60
2018-04-02T07:07:25.396Z,80.60
2018-04-02T07:09:53.638Z,78.94
2018-04-02T07:12:21.968Z,78.86
2018-04-02T07:14:50.357Z,78.57
2018-04-02T07:17:18.867Z,79.27
2018-04-02T07:19:47.124Z,78.90
2018-04-02T07:22:15.687Z,77.84
2018-04-02T07:24:44.081Z,76.95
2018-04-02T07:27:12.469Z,77.86
2018-04-02T07:29:40.841Z,77.26
2018-04-02T07:32:09.261Z,78.46
2018-04-02T07:34:37.556Z,76.48
2018-04-02T07:37:05.912Z,76.40
2018-04-02T07:39:34.201Z,76.54
2018-04-02T07:42:02.586Z,76.46
2018-04-02T07:44:30.889Z,75.70
2018-04-02T07:46:59.216Z,76.35
2018-04-02T07:49:27.716Z,75.75
2018-04-02T07:51:56.111Z,75.49
2018-04-02T07:54:24.438Z,75.17
2018-04-02T07:56:52.778Z,74.22
2018-04-02T07:59:21.122Z,74.30
2018-04-02T08:01:49.487Z,74.01
2018-04-02T08:04:17.831Z,74.25
2018-04-02T08:06:46.268Z,73.06
2018-04-02T08:09:14.607Z,73.41
2018-04-02T08:11:42.927Z,73.40
2018-04-02T08:14:11.382Z,72.65
2018-04-02T08:16:39.906Z,72.91
2018-04-02T08:19:08.211Z,70.86
2018-04-02T08:21:36.929Z,70.65
2018-04-02T08:24:05.184Z,71.40
2018-04-02T08:26:33.641Z,71.12
2018-04-02T08:29:01.921Z,71.78
2018-04-02T08:31:30.237Z,69.98
2018-04-02T08:33:58.692Z,71.80
2018-04-02T08:36:27.138Z,71.13
2018-04-02T08:38:55.678Z,70.34
2018-04-02T08:41:24.156Z,70.23
2018-04-02T08:43:52.517Z,69.25
2018-04-02T08:46:20.793Z,68.42
2018-04-02T08:48:49.094Z,68.39
2018-04-02T08:51:17.432Z,67.70
2018-04-02T08:53:45.848Z,68.51
2018-04-02T08:56:14.134Z,66.90
2018-04-02T08:58:42.405Z,65.99
2018-04-02T09:01:11.004Z,67.17
2018-04-02T09:03:39.332Z,63.81
2018-04-02T09:06:07.698Z,64.06
2018-04-02T09:08:35.988Z,64.02
2018-04-02T09:11:04.268Z,63.46
2018-04-02T09:13:32.528Z,61.86
2018-04-02T09:16:00.800Z,61.86
2018-04-02T09:18:29.084Z,60.32
2018-04-02T09:20:57.395Z,59.19
2018-04-02T09:23:25.865Z,60.21
2018-04-02T09:25:54.298Z,60.63
2018-04-02T09:28:22.593Z,60.53
2018-04-02T09:30:50.892Z,60.25
2018-04-02T09:33:19.361Z,59.80
2018-04-02T09:35:47.675Z,59.40
2018-04-02T09:38:15.972Z,58.73
2018-04-02T09:40:44.281Z,57.28
2018-04-02T09:43:12.671Z,55.26
2018-04-02T09:45:40.969Z,51.62
2018-04-02T09:48:09.353Z,52.41
2018-04-02T09:50:37.631Z,50.98
2018-04-02T09:53:05.910Z,48.96
2018-04-02T09:55:34.596Z,50.94
2018-04-02T09:58:02.935Z,50.83
2018-04-02T10:00:33.674Z,50.26
2018-04-02T10:03:01.920Z,52.79
2018-04-02T10:05:31.214Z,49.39
2018-04-02T10:07:59.490Z,48.36
2018-04-02T10:10:27.935Z,48.50
2018-04-02T10:12:56.138Z,45.48
2018-04-02T10:15:24.475Z,47.88
2018-04-02T10:17:52.811Z,46.60
2018-04-02T10:20:21.125Z,46.86
2018-04-02T10:22:49.456Z,46.65
2018-04-02T10:25:17.772Z,46.07
2018-04-02T10:27:46.040Z,46.38
2018-04-02T10:30:14.363Z,46.21
2018-04-02T10:32:42.612Z,46.99
2018-04-02T10:35:10.917Z,45.38
2018-04-02T10:37:39.248Z,45.42
2018-04-02T10:40:07.578Z,46.95
2018-04-02T10:42:35.900Z,45.35
2018-04-02T10:45:10.988Z,46.30
2018-04-02T10:47:39.874Z,43.70
2018-04-02T10:50:08.260Z,41.39
2018-04-02T10:52:36.584Z,43.37
2018-04-02T10:55:05.852Z,43.86
2018-04-02T10:57:34.316Z,43.82
2018-04-02T11:00:03.828Z,43.77
2018-04-02T11:02:32.153Z,45.79
2018-04-02T11:05:00.518Z,41.94
2018-04-02T11:07:28.985Z,41.91
2018-04-02T11:09:57.327Z,41.26
2018-04-02T11:12:25.719Z,41.59
2018-04-02T11:14:57.099Z,38.18
2018-04-02T11:17:25.414Z,37.65
2018-04-02T11:19:53.667Z,35.31
2018-04-02T11:22:21.982Z,35.44
2018-04-02T11:24:50.312Z,35.80
2018-04-02T11:27:18.652Z,35.53
2018-04-02T11:29:46.914Z,36.96
2018-04-02T11:32:15.485Z,33.21
2018-04-02T11:34:43.796Z,34.06
2018-04-02T11:37:12.268Z,33.20
2018-04-02T11:39:40.658Z,32.58
2018-04-02T11:42:23.907Z,33.17
2018-04-02T11:44:52.201Z,32.97
2018-04-02T11:47:20.579Z,32.88
2018-04-02T11:49:48.988Z,33.95
2018-04-02T11:52:17.354Z,33.13
2018-04-02T11:54:45.642Z,32.50
2018-04-02T11:57:14.021Z,31.41
2018-04-02T11:59:42.548Z,30.98
2018-04-02T12:02:10.861Z,29.31
2018-04-02T12:04:39.153Z,32.84
2018-04-02T12:07:07.454Z,31.11
2018-04-02T12:09:35.780Z,29.34
2018-04-02T12:12:04.098Z,31.69
2018-04-02T12:14:32.394Z,29.15
2018-04-02T12:17:00.689Z,30.37
2018-04-02T12:19:28.989Z,32.44
2018-04-02T12:21:57.273Z,27.21
2018-04-02T12:24:25.584Z,30.78
2018-04-02T12:26:53.892Z,30.74
2018-04-02T12:29:22.405Z,27.63
2018-04-02T12:31:50.701Z,28.24
2018-04-02T12:34:18.985Z,33.11
2018-04-02T12:36:47.276Z,26.22
2018-04-02T12:39:15.587Z,30.20
2018-04-02T12:41:44.026Z,30.18
2018-04-02T12:44:12.616Z,26.88
2018-04-02T12:46:40.964Z,25.66
2018-04-02T12:49:09.268Z,26.35
2018-04-02T12:51:37.740Z,27.95
2018-04-02T12:54:06.028Z,26.50
2018-04-02T12:56:34.881Z,25.22
2018-04-02T12:59:03.455Z,24.29
2018-04-02T13:01:31.732Z,26.09
2018-04-02T13:04:00.085Z,25.58
2018-04-02T13:06:28.372Z,25.50
2018-04-02T13:08:56.628Z,25.51
2018-04-02T13:11:24.952Z,23.92
2018-04-02T13:13:53.281Z,24.73
2018-04-02T13:16:21.585Z,25.35
2018-04-02T13:18:49.854Z,33.52
2018-04-02T13:21:18.176Z,27.55
2018-04-02T13:23:46.466Z,23.44
2018-04-02T13:26:14.751Z,24.35
2018-04-02T13:28:43.127Z,25.42
2018-04-02T13:31:11.521Z,25.83
2018-04-02T13:33:39.821Z,23.65
2018-04-02T13:36:08.120Z,24.31
2018-04-02T13:38:36.416Z,25.01
2018-04-02T13:41:04.963Z,24.32
2018-04-02T13:43:34.403Z,24.58
2018-04-02T13:46:02.896Z,24.59
2018-04-02T13:48:31.327Z,25.93
2018-04-02T13:50:59.717Z,26.90
2018-04-02T13:53:28.065Z,29.48
2018-04-02T13:55:56.471Z,29.65
2018-04-02T13:58:25.431Z,32.65
2018-04-02T14:00:54.192Z,29.39
2018-04-02T14:03:22.719Z,29.76
2018-04-02T14:05:51.188Z,28.49
2018-04-02T14:08:19.497Z,26.80
2018-04-02T14:10:47.814Z,25.75
2018-04-02T14:13:16.167Z,26.96
2018-04-02T14:15:44.849Z,30.58
2018-04-02T14:18:13.284Z,34.14
2018-04-02T14:20:41.608Z,36.49
2018-04-02T14:23:09.952Z,36.24
2018-04-02T14:25:38.253Z,37.91
2018-04-02T14:28:06.674Z,39.47
2018-04-02T14:30:35.008Z,40.01
2018-04-02T14:33:03.556Z,40.45
2018-04-02T14:35:31.865Z,39.41
2018-04-02T14:38:00.155Z,38.33
2018-04-02T14:40:28.467Z,37.83
2018-04-02T14:42:57.015Z,39.38
2018-04-02T14:45:25.313Z,40.57
2018-04-02T14:47:53.914Z,41.87
2018-04-02T14:50:22.252Z,40.27
2018-04-02T14:52:50.696Z,41.93
2018-04-02T14:55:19.004Z,40.93
2018-04-02T14:57:47.285Z,40.25
2018-04-02T15:00:15.679Z,41.89
2018-04-02T15:02:45.143Z,41.12
2018-04-02T15:05:14.338Z,41.32
2018-04-02T15:07:43.017Z,42.37
2018-04-02T15:10:11.467Z,42.88
2018-04-02T15:12:39.773Z,41.37
2018-04-02T15:15:08.151Z,40.99
2018-04-02T15:17:36.513Z,41.67
2018-04-02T15:20:04.861Z,41.90
2018-04-02T15:22:33.225Z,43.62
2018-04-02T15:25:01.528Z,41.77
2018-04-02T15:27:30.082Z,42.62
2018-04-02T15:29:58.365Z,41.93
2018-04-02T15:32:26.702Z,43.03
2018-04-02T15:34:55.834Z,42.04
2018-04-02T15:37:24.207Z,44.23
2018-04-02T15:39:52.829Z,43.41
2018-04-02T15:42:21.797Z,43.00
2018-04-02T15:44:50.873Z,43.09
2018-04-02T15:47:19.222Z,43.30
2018-04-02T15:49:47.565Z,44.57
2018-04-02T15:52:16.499Z,43.87
2018-04-02T15:54:44.876Z,43.20
2018-04-02T15:57:13.309Z,43.64
2018-04-02T15:59:41.553Z,45.07
2018-04-02T16:02:09.909Z,42.92
2018-04-02T16:04:38.276Z,44.41
2018-04-02T16:07:06.638Z,44.52
2018-04-02T16:09:34.985Z,44.76
2018-04-02T16:12:03.367Z,45.40
2018-04-02T16:14:31.629Z,44.77
2018-04-02T16:16:59.975Z,44.58
2018-04-02T16:19:28.262Z,46.24
2018-04-02T16:21:56.801Z,45.93
2018-04-02T16:24:25.266Z,46.57
2018-04-02T16:26:53.637Z,47.25
2018-04-02T16:30:25.013Z,47.14
2018-04-02T16:32:53.324Z,47.25
2018-04-02T16:35:21.668Z,46.56
2018-04-02T16:37:50.021Z,47.08
2018-04-02T16:40:19.901Z,46.62
2018-04-02T16:42:48.496Z,49.14
2018-04-02T16:45:16.936Z,47.13
2018-04-02T16:47:45.258Z,47.43
2018-04-02T16:50:13.617Z,52.86
2018-04-02T16:52:41.913Z,51.48
2018-04-02T16:55:10.289Z,50.88
2018-04-02T16:57:38.563Z,54.54
2018-04-02T17:00:06.944Z,53.59
2018-04-02T17:02:35.233Z,55.05
2018-04-02T17:05:03.559Z,53.78
2018-04-02T17:07:31.889Z,49.87
2018-04-02T17:10:00.177Z,50.21
2018-04-02T17:12:28.569Z,49.79
2018-04-02T17:14:56.953Z,50.09
2018-04-02T17:17:25.348Z,50.25
2018-04-02T17:19:53.757Z,50.72
2018-04-02T17:22:23.047Z,51.19
2018-04-02T17:24:51.608Z,51.10
2018-04-02T17:27:21.925Z,51.83
2018-04-02T17:29:52.633Z,51.97
2018-04-02T17:32:21.501Z,52.49
2018-04-02T17:34:49.829Z,53.29
2018-04-02T17:37:18.127Z,53.50
2018-04-02T17:39:46.454Z,53.85
2018-04-02T17:42:14.792Z,53.85
2018-04-02T17:44:43.115Z,53.99
2018-04-02T17:47:11.398Z,53.64
2018-04-02T17:49:39.791Z,53.63
2018-04-02T17:52:08.837Z,53.81
2018-04-02T17:54:37.275Z,56.17
2018-04-02T17:57:05.629Z,56.47
2018-04-02T17:59:33.925Z,56.07
2018-04-02T18:02:02.224Z,56.29
2018-04-02T18:04:32.046Z,56.29
2018-04-02T18:07:03.258Z,56.59
2018-04-02T18:09:34.515Z,55.99
2018-04-02T18:12:03.153Z,56.77
2018-04-02T18:14:31.489Z,56.32
2018-04-02T18:17:01.381Z,55.60
2018-04-02T18:19:29.791Z,56.59
2018-04-02T18:21:58.635Z,57.76
2018-04-02T18:24:27.038Z,56.92
2018-04-02T18:26:55.415Z,57.65
2018-04-02T18:29:25.142Z,57.95
2018-04-02T18:31:53.455Z,56.79
2018-04-02T18:34:21.717Z,58.08
2018-04-02T18:36:52.190Z,57.43
2018-04-02T18:39:20.932Z,57.35
2018-04-02T18:41:54.983Z,57.93
2018-04-02T18:44:23.285Z,58.40
2018-04-02T18:46:51.637Z,57.19
2018-04-02T18:49:19.960Z,57.50
2018-04-02T18:51:48.268Z,57.92
2018-04-02T18:54:16.560Z,57.02
2018-04-02T18:56:44.908Z,58.42
2018-04-02T18:59:13.272Z,58.05
2018-04-02T19:01:43.554Z,58.75
2018-04-02T19:04:12.892Z,58.40
2018-04-02T19:06:43.277Z,57.49
2018-04-02T19:09:13.110Z,57.77
2018-04-02T19:11:42.184Z,57.93
2018-04-02T19:14:10.476Z,57.83
2018-04-02T19:16:38.844Z,58.70
2018-04-02T19:19:07.203Z,57.80
2018-04-02T19:21:38.747Z,58.17
2018-04-02T19:24:08.330Z,57.06
2018-04-02T19:26:36.716Z,58.85
2018-04-02T19:29:06.121Z,57.49
2018-04-02T19:31:34.438Z,57.48
2018-04-02T19:34:02.846Z,57.86
2018-04-02T19:36:31.190Z,58.65
2018-04-02T19:39:01.172Z,59.16
2018-04-02T19:41:32.282Z,58.75
2018-04-02T19:44:01.228Z,58.56
2018-04-02T19:46:31.169Z,58.91
2018-04-02T19:49:01.434Z,58.67
2018-04-02T19:51:31.343Z,58.47
2018-04-02T19:53:59.700Z,58.62
2018-04-02T19:56:28.756Z,58.72
2018-04-02T19:58:57.505Z,59.13
2018-04-02T20:01:25.920Z,59.49
2018-04-02T20:03:54.306Z,60.10
2018-04-02T20:06:23.009Z,59.86
2018-04-02T20:08:51.303Z,60.52
2018-04-02T20:11:19.700Z,59.88
2018-04-02T20:13:48.664Z,60.11
2018-04-02T20:16:17.078Z,60.06
2018-04-02T20:18:45.680Z,60.21
2018-04-02T20:21:14.021Z,60.53
2018-04-02T20:23:43.862Z,61.54
2018-04-02T20:26:12.714Z,60.55
2018-04-02T20:28:42.080Z,61.46
2018-04-02T20:31:18.768Z,61.16
2018-04-02T20:33:47.280Z,61.82
2018-04-02T20:36:18.392Z,61.66
2018-04-02T20:38:47.303Z,61.00
2018-04-02T20:41:15.608Z,61.95
2018-04-02T20:43:44.249Z,61.21
2018-04-02T20:46:12.548Z,61.90
2018-04-02T20:48:40.892Z,62.06
2018-04-02T20:51:09.220Z,62.72
2018-04-02T20:53:37.825Z,62.23
2018-04-02T20:56:06.173Z,62.33
2018-04-02T20:58:34.456Z,62.65
2018-04-02T21:01:03.197Z,63.52
2018-04-02T21:03:31.931Z,63.21
2018-04-02T21:06:00.253Z,62.23
2018-04-02T21:08:28.749Z,62.98
2018-04-02T21:10:57.294Z,62.64
2018-04-02T21:13:25.952Z,62.26
2018-04-02T21:15:54.560Z,62.80
2018-04-02T21:18:23.237Z,63.54
2018-04-02T21:20:52.376Z,62.35
2018-04-02T21:25:59.436Z,62.95
2018-04-02T21:28:28.142Z,63.06
2018-04-02T21:30:56.776Z,63.34
2018-04-02T21:33:25.378Z,63.49
2018-04-02T21:35:53.757Z,63.54
2018-04-02T21:38:22.053Z,63.69
2018-04-02T21:40:50.487Z,63.70
2018-04-02T21:43:18.893Z,63.72
2018-04-02T21:45:47.942Z,63.19
2018-04-02T21:48:17.542Z,63.77
2018-04-02T21:50:47.916Z,63.67
2018-04-02T21:53:17.123Z,63.83
2018-04-02T21:55:46.087Z,62.77
2018-04-02T21:58:14.744Z,63.47
2018-04-02T22:00:44.907Z,63.90
2018-04-02T22:03:15.353Z,63.46
2018-04-02T22:05:44.670Z,62.68
2018-04-02T22:08:13.949Z,63.12
2018-04-02T22:10:42.545Z,63.72
2018-04-02T22:13:11.633Z,63.35
2018-04-02T22:15:41.223Z,63.45
2018-04-02T22:18:10.668Z,63.22
2018-04-02T22:20:39.252Z,63.20
2018-04-02T22:23:07.523Z,64.24
2018-04-02T22:25:35.840Z,64.45
2018-04-02T22:28:05.397Z,63.59
2018-04-02T22:30:34.628Z,63.89
2018-04-02T22:33:03.201Z,63.57
2018-04-02T22:35:37.733Z,64.64
2018-04-02T22:38:06.930Z,64.72
2018-04-02T22:40:38.630Z,64.56
2018-04-02T22:43:10.850Z,65.10
2018-04-02T22:45:40.476Z,64.92
2018-04-02T22:48:09.326Z,63.74
2018-04-02T22:50:39.700Z,64.12
2018-04-02T22:53:08.483Z,64.23
2018-04-02T22:55:38.498Z,63.94
2018-04-02T22:58:07.588Z,63.91
2018-04-02T23:00:36.557Z,64.23
2018-04-02T23:03:05.410Z,64.11
2018-04-02T23:05:33.806Z,64.80
2018-04-02T23:08:02.150Z,64.86
2018-04-02T23:10:30.501Z,65.61
2018-04-02T23:12:58.916Z,64.85
2018-04-02T23:15:30.037Z,64.83
2018-04-02T23:17:58.345Z,64.56
2018-04-02T23:20:26.848Z,64.92
2018-04-02T23:22:55.281Z,65.32
2018-04-02T23:25:23.597Z,66.79
2018-04-02T23:27:51.865Z,65.56
2018-04-02T23:30:20.156Z,66.20
2018-04-02T23:32:48.427Z,66.30
2018-04-02T23:35:16.820Z,66.44
2018-04-02T23:37:45.157Z,66.89
2018-04-02T23:40:13.560Z,66.47
2018-04-02T23:42:41.920Z,66.56
2018-04-02T23:45:10.400Z,66.27
2018-04-02T23:47:38.718Z,65.76
2018-04-02T23:50:07.037Z,66.40
2018-04-02T23:52:35.346Z,66.50
2018-04-02T23:55:03.677Z,66.59
2018-04-02T23:57:32.044Z,66.85
